Time;durP1;ratioP1;P1;durP2;ratioP2;P2;SDS_P1;SDS_P2;PMS_P1;PMS_P2;Temp;Humidity;BMP_temperature;BMP_pressure;BME280_temperature;BME280_humidity;BME280_pressure;Samples;Min_cycle;Max_cycle;Signal;HPM_P1;HPM_P2
2023/11/12 00:00:14;;;;;;;26.38;6.03;;;;;;;;;;5056827;28;20029;-70
2023/11/12 00:02:39;;;;;;;15.32;5.85;;;;;;;;;;5056571;28;20028;-70
2023/11/12 00:05:05;;;;;;;23.45;6.50;;;;;;;;;;5055619;28;20378;-70
2023/11/12 00:07:30;;;;;;;23.10;6.50;;;;;;;;;;5055017;28;20465;-70
2023/11/12 00:09:55;;;;;;;24.70;6.72;;;;;;;;;;5042171;28;20482;-70
2023/11/12 00:12:22;;;;;;;18.92;6.57;;;;;;;;;;5036286;28;20087;-70
2023/11/12 00:14:48;;;;;;;30.55;9.73;;;;;;;;;;5040907;28;20025;-70
2023/11/12 00:17:15;;;;;;;34.58;8.07;;;;;;;;;;5055513;28;20107;-70
2023/11/12 00:19:40;;;;;;;38.60;9.95;;;;;;;;;;5054695;28;20017;-70
2023/11/12 00:22:05;;;;;;;28.95;8.73;;;;;;;;;;5056475;28;20029;-70
2023/11/12 00:24:31;;;;;;;44.17;11.10;;;;;;;;;;5056458;28;20025;-70
2023/11/12 00:26:56;;;;;;;23.88;8.52;;;;;;;;;;5056085;28;20029;-70
2023/11/12 00:29:22;;;;;;;28.35;7.50;;;;;;;;;;5071489;28;20474;-70
2023/11/12 00:31:47;;;;;;;26.15;8.05;;;;;;;;;;5055591;28;20524;-70
2023/11/12 00:34:12;;;;;;;27.42;8.65;;;;;;;;;;5054760;28;20071;-70
2023/11/12 00:36:40;;;;;;;27.13;9.38;;;;;;;;;;5055959;28;20098;-71
2023/11/12 00:39:05;;;;;;;30.05;9.48;;;;;;;;;;5054895;28;20028;-70
2023/11/12 00:41:31;;;;;;;32.72;9.35;;;;;;;;;;5054026;28;20094;-70
2023/11/12 00:43:56;;;;;;;23.17;9.18;;;;;;;;;;5054876;28;20040;-70
2023/11/12 00:46:22;;;;;;;30.27;8.75;;;;;;;;;;5055622;28;20436;-70
2023/11/12 00:48:47;;;;;;;26.58;8.05;;;;;;;;;;5053602;28;20029;-70
2023/11/12 00:51:12;;;;;;;30.33;8.80;;;;;;;;;;5055004;28;20017;-70
2023/11/12 00:53:38;;;;;;;32.40;9.25;;;;;;;;;;5035861;28;20022;-70
2023/11/12 00:56:04;;;;;;;30.80;8.90;;;;;;;;;;5047143;28;20488;-70
2023/11/12 00:58:29;;;;;;;22.90;7.38;;;;;;;;;;5054267;28;20569;-70
2023/11/12 01:00:55;;;;;;;32.00;8.02;;;;;;;;;;5070902;28;20061;-70
2023/11/12 01:03:21;;;;;;;35.90;9.65;;;;;;;;;;5050118;28;20017;-70
2023/11/12 01:05:48;;;;;;;30.52;8.77;;;;;;;;;;5070896;28;20421;-70
2023/11/12 01:08:13;;;;;;;28.50;9.25;;;;;;;;;;5055397;28;20131;-70
2023/11/12 01:10:38;;;;;;;32.97;9.35;;;;;;;;;;5037810;28;20034;-70
2023/11/12 01:13:03;;;;;;;41.38;10.98;;;;;;;;;;5035175;28;20116;-70
2023/11/12 01:15:29;;;;;;;40.83;11.27;;;;;;;;;;5042236;28;20060;-70
2023/11/12 01:17:55;;;;;;;35.42;11.38;;;;;;;;;;5055598;28;20021;-70
2023/11/12 01:20:21;;;;;;;26.70;9.60;;;;;;;;;;5054564;28;20017;-70
2023/11/12 01:22:46;;;;;;;24.90;8.50;;;;;;;;;;5055580;28;20032;-70
2023/11/12 01:25:12;;;;;;;33.35;10.05;;;;;;;;;;5055054;28;20020;-70
2023/11/12 01:27:37;;;;;;;30.15;10.32;;;;;;;;;;5055013;28;20020;-70
2023/11/12 01:30:04;;;;;;;38.90;10.70;;;;;;;;;;5054814;28;20025;-70
2023/11/12 01:32:29;;;;;;;33.00;9.70;;;;;;;;;;5055209;28;20452;-70
2023/11/12 01:34:54;;;;;;;31.40;10.95;;;;;;;;;;5069797;28;20031;-70
2023/11/12 01:37:20;;;;;;;24.08;9.43;;;;;;;;;;5053139;28;20033;-70
2023/11/12 01:39:47;;;;;;;26.38;8.65;;;;;;;;;;5054748;28;20486;-70
2023/11/12 01:42:13;;;;;;;27.27;9.38;;;;;;;;;;5054139;28;20504;-70
2023/11/12 01:44:38;;;;;;;28.52;9.23;;;;;;;;;;5054906;28;20016;-70
2023/11/12 01:47:05;;;;;;;22.67;8.75;;;;;;;;;;5046567;28;20025;-70
2023/11/12 01:49:32;;;;;;;29.63;10.07;;;;;;;;;;5054372;28;20032;-70
2023/11/12 01:51:57;;;;;;;28.17;9.38;;;;;;;;;;5054863;28;20039;-70
2023/11/12 01:54:26;;;;;;;27.92;8.38;;;;;;;;;;5054427;28;20104;-70
2023/11/12 01:56:55;;;;;;;25.80;8.55;;;;;;;;;;5052670;28;20021;-70
2023/11/12 01:59:21;;;;;;;26.75;7.55;;;;;;;;;;5070059;28;20086;-70
2023/11/12 02:01:50;;;;;;;23.52;8.20;;;;;;;;;;5053328;28;20044;-70
2023/11/12 02:04:17;;;;;;;22.27;8.35;;;;;;;;;;5099727;23;20410;-67
2023/11/12 02:06:42;;;;;;;24.77;8.23;;;;;;;;;;5034306;28;20028;-67
2023/11/12 02:09:07;;;;;;;26.60;8.35;;;;;;;;;;5042752;28;20034;-67
2023/11/12 02:11:34;;;;;;;20.40;8.15;;;;;;;;;;5014280;28;20022;-67
2023/11/12 02:13:59;;;;;;;19.48;8.35;;;;;;;;;;5029188;28;20483;-67
2023/11/12 02:16:25;;;;;;;24.75;8.50;;;;;;;;;;5014335;28;20034;-67
2023/11/12 02:18:50;;;;;;;22.40;7.93;;;;;;;;;;5029490;28;20026;-67
2023/11/12 02:21:23;;;;;;;22.77;7.95;;;;;;;;;;5013966;28;20030;-67
2023/11/12 02:23:48;;;;;;;23.45;8.88;;;;;;;;;;5009106;28;20029;-67
2023/11/12 02:26:13;;;;;;;25.45;9.57;;;;;;;;;;5011767;28;20539;-67
2023/11/12 02:28:38;;;;;;;28.83;10.32;;;;;;;;;;5014136;28;20037;-67
2023/11/12 02:31:04;;;;;;;27.48;9.02;;;;;;;;;;5029532;28;20076;-67
2023/11/12 02:33:30;;;;;;;25.25;8.68;;;;;;;;;;5014389;28;21413;-67
2023/11/12 02:35:56;;;;;;;26.33;8.60;;;;;;;;;;5013315;28;20026;-67
2023/11/12 02:38:22;;;;;;;30.25;10.68;;;;;;;;;;5004065;28;20105;-67
2023/11/12 02:40:48;;;;;;;34.25;9.98;;;;;;;;;;5005882;28;20025;-67
2023/11/12 02:43:13;;;;;;;32.65;10.35;;;;;;;;;;5029422;28;20081;-67
2023/11/12 02:45:39;;;;;;;33.58;11.60;;;;;;;;;;5013934;28;20026;-67
2023/11/12 02:48:04;;;;;;;38.72;11.82;;;;;;;;;;5012836;28;20037;-67
2023/11/12 02:50:31;;;;;;;40.72;12.75;;;;;;;;;;5028605;28;20026;-67
2023/11/12 02:53:00;;;;;;;34.85;13.10;;;;;;;;;;5012491;28;20449;-67
2023/11/12 02:55:27;;;;;;;44.63;14.48;;;;;;;;;;5012742;28;20022;-67
2023/11/12 02:57:53;;;;;;;36.13;12.13;;;;;;;;;;5028802;28;20022;-67
2023/11/12 03:00:20;;;;;;;41.58;13.68;;;;;;;;;;5013828;28;20434;-67
2023/11/12 03:02:49;;;;;;;43.80;12.65;;;;;;;;;;5013758;28;20026;-67
2023/11/12 03:05:14;;;;;;;40.45;13.32;;;;;;;;;;5013059;28;20486;-67
2023/11/12 03:07:41;;;;;;;37.35;12.25;;;;;;;;;;5013735;28;20036;-67
2023/11/12 03:10:08;;;;;;;44.22;15.10;;;;;;;;;;5028979;28;20030;-67
2023/11/12 03:12:36;;;;;;;48.95;14.20;;;;;;;;;;5028671;28;20022;-67
2023/11/12 03:15:01;;;;;;;45.28;13.68;;;;;;;;;;5024807;28;20483;-68
2023/11/12 03:17:26;;;;;;;40.28;13.23;;;;;;;;;;5007431;28;20030;-67
2023/11/12 03:19:52;;;;;;;37.95;12.70;;;;;;;;;;5008202;28;20033;-67
2023/11/12 03:22:17;;;;;;;39.65;12.02;;;;;;;;;;5030328;28;20527;-67
2023/11/12 03:24:42;;;;;;;40.63;12.18;;;;;;;;;;5017549;28;20026;-67
2023/11/12 03:27:08;;;;;;;42.65;13.35;;;;;;;;;;5033496;28;20152;-67
2023/11/12 03:29:34;;;;;;;40.35;11.88;;;;;;;;;;5032269;28;20109;-67
2023/11/12 03:31:59;;;;;;;37.80;11.95;;;;;;;;;;5011557;28;20033;-67
2023/11/12 03:34:24;;;;;;;38.22;11.10;;;;;;;;;;4997602;28;20038;-67
2023/11/12 03:36:50;;;;;;;29.35;10.27;;;;;;;;;;4997752;28;20110;-67
2023/11/12 03:39:15;;;;;;;37.15;10.38;;;;;;;;;;5013003;28;20033;-67
2023/11/12 03:41:40;;;;;;;28.08;9.40;;;;;;;;;;5030845;28;20100;-67
2023/11/12 03:44:06;;;;;;;28.88;8.98;;;;;;;;;;5016995;28;20208;-67
2023/11/12 03:46:31;;;;;;;27.70;9.82;;;;;;;;;;5016240;28;20485;-67
2023/11/12 03:48:56;;;;;;;24.38;10.15;;;;;;;;;;5016395;28;20026;-67
2023/11/12 03:51:22;;;;;;;27.17;9.98;;;;;;;;;;5027691;28;20029;-67
2023/11/12 03:53:48;;;;;;;27.40;7.95;;;;;;;;;;5012623;28;20018;-67
2023/11/12 03:56:13;;;;;;;30.63;10.00;;;;;;;;;;5012153;28;20101;-67
2023/11/12 03:58:38;;;;;;;30.63;10.30;;;;;;;;;;4997467;28;20026;-67
2023/11/12 04:01:04;;;;;;;30.33;10.98;;;;;;;;;;4997499;28;20014;-67
2023/11/12 04:03:29;;;;;;;36.60;11.00;;;;;;;;;;5010905;28;20033;-67
2023/11/12 04:05:54;;;;;;;35.60;11.68;;;;;;;;;;5016448;28;20032;-67
2023/11/12 04:08:20;;;;;;;26.95;9.23;;;;;;;;;;5016650;28;20446;-67
2023/11/12 04:10:46;;;;;;;30.05;9.73;;;;;;;;;;5014726;28;20435;-67
2023/11/12 04:13:11;;;;;;;27.60;9.20;;;;;;;;;;4995528;28;20022;-67
2023/11/12 04:15:37;;;;;;;25.00;8.88;;;;;;;;;;4998857;28;20053;-67
2023/11/12 04:18:02;;;;;;;23.85;9.57;;;;;;;;;;4995874;28;20029;-67
2023/11/12 04:20:29;;;;;;;28.25;8.75;;;;;;;;;;4997100;28;20023;-67
2023/11/12 04:22:57;;;;;;;19.95;6.93;;;;;;;;;;4997105;28;20023;-67
2023/11/12 04:25:23;;;;;;;26.48;8.25;;;;;;;;;;5001936;28;20399;-67
2023/11/12 04:27:48;;;;;;;24.25;8.10;;;;;;;;;;5016440;28;20029;-67
2023/11/12 04:30:13;;;;;;;24.95;8.30;;;;;;;;;;5014799;28;20109;-67
2023/11/12 04:32:39;;;;;;;24.48;8.40;;;;;;;;;;5016601;28;20030;-67
2023/11/12 04:35:07;;;;;;;26.52;8.95;;;;;;;;;;5014853;28;20483;-67
2023/11/12 04:37:33;;;;;;;26.17;8.82;;;;;;;;;;5014740;28;20109;-67
2023/11/12 04:40:00;;;;;;;23.77;7.95;;;;;;;;;;5016091;28;20533;-67
2023/11/12 04:42:25;;;;;;;26.17;9.35;;;;;;;;;;5031267;28;20026;-67
2023/11/12 04:44:51;;;;;;;29.25;10.43;;;;;;;;;;5015944;28;20048;-67
2023/11/12 04:47:16;;;;;;;25.35;9.10;;;;;;;;;;5015305;28;20021;-67
2023/11/12 04:49:42;;;;;;;26.67;9.07;;;;;;;;;;5015960;28;20486;-67
2023/11/12 04:52:10;;;;;;;33.35;10.85;;;;;;;;;;5016155;28;20109;-67
2023/11/12 04:54:35;;;;;;;30.42;10.23;;;;;;;;;;5015664;28;20053;-67
2023/11/12 04:57:01;;;;;;;28.75;12.52;;;;;;;;;;5015291;28;20486;-67
2023/11/12 04:59:27;;;;;;;30.10;11.20;;;;;;;;;;5015644;28;20034;-67
2023/11/12 05:01:53;;;;;;;34.83;12.70;;;;;;;;;;5014030;28;20028;-67
2023/11/12 05:04:18;;;;;;;34.83;12.57;;;;;;;;;;5014350;28;20029;-67
2023/11/12 05:06:44;;;;;;;31.38;12.02;;;;;;;;;;5011810;28;20026;-67
2023/11/12 05:09:10;;;;;;;36.58;12.63;;;;;;;;;;5015106;28;20034;-67
2023/11/12 05:11:37;;;;;;;38.50;11.18;;;;;;;;;;5015008;28;20034;-67
2023/11/12 05:14:03;;;;;;;35.47;12.82;;;;;;;;;;5013219;28;20483;-67
2023/11/12 05:16:29;;;;;;;34.42;12.05;;;;;;;;;;5014826;28;20451;-67
2023/11/12 05:18:54;;;;;;;38.67;12.10;;;;;;;;;;5012767;28;20112;-67
2023/11/12 05:21:19;;;;;;;31.40;12.18;;;;;;;;;;4997322;28;20026;-67
2023/11/12 05:23:44;;;;;;;29.38;10.32;;;;;;;;;;5010637;28;20490;-67
2023/11/12 05:26:10;;;;;;;32.13;10.27;;;;;;;;;;5007053;28;20054;-67
2023/11/12 05:28:35;;;;;;;24.48;10.25;;;;;;;;;;5014669;28;20018;-67
2023/11/12 05:31:00;;;;;;;27.17;11.13;;;;;;;;;;5013051;28;20022;-67
2023/11/12 05:33:25;;;;;;;24.77;8.95;;;;;;;;;;5014550;28;20028;-67
2023/11/12 05:35:51;;;;;;;23.85;8.85;;;;;;;;;;5007516;28;20034;-67
2023/11/12 05:38:16;;;;;;;26.77;9.32;;;;;;;;;;4995565;28;20034;-67
2023/11/12 05:40:41;;;;;;;31.33;11.18;;;;;;;;;;5007024;28;20452;-67
2023/11/12 05:43:07;;;;;;;26.30;9.45;;;;;;;;;;5014833;28;20021;-67
2023/11/12 05:45:32;;;;;;;22.42;9.63;;;;;;;;;;5014157;28;20168;-67
2023/11/12 05:47:58;;;;;;;22.77;8.23;;;;;;;;;;5013807;28;20057;-67
2023/11/12 05:50:23;;;;;;;18.20;8.00;;;;;;;;;;5014735;28;20030;-67
2023/11/12 05:52:49;;;;;;;19.88;8.23;;;;;;;;;;5008014;28;20030;-67
2023/11/12 05:55:15;;;;;;;22.75;8.52;;;;;;;;;;4995092;28;20101;-67
2023/11/12 05:57:40;;;;;;;21.83;7.78;;;;;;;;;;4995966;28;20028;-67
2023/11/12 06:00:12;;;;;;;22.02;8.05;;;;;;;;;;4999098;28;20029;-67
2023/11/12 06:02:38;;;;;;;;;;;;;;;;;;5002366;28;20093;-67
2023/11/12 06:05:05;;;;;;;18.67;6.28;;;;;;;;;;4994308;28;19917;-67
2023/11/12 06:07:31;;;;;;;19.95;8.13;;;;;;;;;;4995853;28;20487;-67
2023/11/12 06:09:56;;;;;;;19.70;7.60;;;;;;;;;;4993482;28;20089;-67
2023/11/12 06:12:21;;;;;;;19.35;7.90;;;;;;;;;;4993626;28;20049;-67
2023/11/12 06:14:47;;;;;;;21.90;8.05;;;;;;;;;;4997547;28;20038;-67
2023/11/12 06:17:12;;;;;;;20.77;7.93;;;;;;;;;;5017474;28;20057;-67
2023/11/12 06:19:38;;;;;;;19.13;8.02;;;;;;;;;;5010704;28;20025;-67
2023/11/12 06:22:03;;;;;;;20.52;7.38;;;;;;;;;;5006168;28;20044;-67
2023/11/12 06:24:28;;;;;;;18.90;7.53;;;;;;;;;;5014031;28;20426;-67
2023/11/12 06:26:54;;;;;;;18.35;7.57;;;;;;;;;;5014100;28;20021;-67
2023/11/12 06:29:23;;;;;;;21.80;8.95;;;;;;;;;;5023000;28;20026;-67
2023/11/12 06:31:49;;;;;;;17.27;7.82;;;;;;;;;;5010952;28;20037;-67
2023/11/12 06:34:14;;;;;;;18.77;8.00;;;;;;;;;;5013560;28;20021;-67
2023/11/12 06:36:39;;;;;;;19.20;7.75;;;;;;;;;;5013858;28;20052;-67
2023/11/12 06:39:05;;;;;;;17.85;8.10;;;;;;;;;;5014334;28;20021;-67
2023/11/12 06:41:30;;;;;;;16.80;6.28;;;;;;;;;;5008118;28;20018;-67
2023/11/12 06:43:55;;;;;;;15.23;7.25;;;;;;;;;;5013539;28;20022;-67
2023/11/12 06:46:21;;;;;;;16.60;6.00;;;;;;;;;;5012051;28;20038;-67
2023/11/12 06:48:47;;;;;;;18.08;6.93;;;;;;;;;;4995401;28;20030;-67
2023/11/12 06:51:25;;;;;;;16.65;7.00;;;;;;;;;;4993354;28;20430;-67
2023/11/12 06:53:50;;;;;;;15.43;6.10;;;;;;;;;;4995270;28;20037;-67
2023/11/12 06:56:16;;;;;;;29.33;7.72;;;;;;;;;;5008663;28;20030;-67
2023/11/12 06:58:41;;;;;;;22.98;7.43;;;;;;;;;;4995553;28;20091;-67
2023/11/12 07:01:06;;;;;;;16.55;7.72;;;;;;;;;;5013968;28;20018;-67
2023/11/12 07:03:32;;;;;;;17.35;7.65;;;;;;;;;;5013538;28;20036;-68
2023/11/12 07:05:58;;;;;;;21.20;7.57;;;;;;;;;;5013801;28;20486;-68
2023/11/12 07:08:24;;;;;;;18.63;7.28;;;;;;;;;;5013171;28;20104;-67
2023/11/12 07:10:49;;;;;;;24.77;8.65;;;;;;;;;;5013165;28;20467;-67
2023/11/12 07:13:15;;;;;;;23.15;8.95;;;;;;;;;;5000363;28;20060;-67
2023/11/12 07:15:42;;;;;;;19.85;7.55;;;;;;;;;;5009433;28;20036;-67
2023/11/12 07:18:07;;;;;;;21.50;7.88;;;;;;;;;;5013307;28;20141;-67
2023/11/12 07:20:32;;;;;;;20.02;7.40;;;;;;;;;;5010467;28;20045;-67
2023/11/12 07:22:59;;;;;;;20.60;8.13;;;;;;;;;;5012233;28;20038;-67
2023/11/12 07:25:25;;;;;;;21.67;8.75;;;;;;;;;;5013049;28;20049;-67
2023/11/12 07:27:51;;;;;;;22.95;8.13;;;;;;;;;;5012675;28;20364;-68
2023/11/12 07:30:17;;;;;;;21.65;8.32;;;;;;;;;;5011392;28;20034;-67
2023/11/12 07:32:42;;;;;;;24.35;8.63;;;;;;;;;;5013402;28;20511;-68
2023/11/12 07:35:08;;;;;;;24.58;8.32;;;;;;;;;;5028324;28;20034;-67
2023/11/12 07:37:33;;;;;;;25.48;7.88;;;;;;;;;;5008783;28;20022;-67
2023/11/12 07:39:59;;;;;;;25.50;8.00;;;;;;;;;;5010758;28;20431;-67
2023/11/12 07:42:24;;;;;;;23.88;8.48;;;;;;;;;;5013106;28;20048;-67
2023/11/12 07:44:49;;;;;;;23.80;8.75;;;;;;;;;;5001182;28;20030;-67
2023/11/12 07:47:15;;;;;;;20.63;7.47;;;;;;;;;;4992701;28;20030;-67
2023/11/12 07:49:40;;;;;;;21.30;7.93;;;;;;;;;;5002339;28;20021;-67
2023/11/12 07:52:06;;;;;;;24.60;8.75;;;;;;;;;;5013076;28;20091;-67
2023/11/12 07:54:31;;;;;;;22.45;7.78;;;;;;;;;;5012983;28;20022;-67
2023/11/12 07:56:57;;;;;;;23.30;8.65;;;;;;;;;;5012611;28;20026;-67
2023/11/12 07:59:23;;;;;;;21.27;8.27;;;;;;;;;;5012804;28;20455;-67
2023/11/12 08:01:49;;;;;;;28.10;10.02;;;;;;;;;;5013083;28;20021;-68
2023/11/12 08:04:15;;;;;;;23.65;9.05;;;;;;;;;;5027872;28;20514;-67
2023/11/12 08:06:40;;;;;;;21.02;8.93;;;;;;;;;;5009257;28;20030;-67
2023/11/12 08:09:06;;;;;;;27.60;9.25;;;;;;;;;;5000350;28;20037;-67
2023/11/12 08:11:38;;;;;;;25.60;9.40;;;;;;;;;;4996934;28;20030;-67
2023/11/12 08:14:03;;;;;;;24.25;8.50;;;;;;;;;;5004357;28;20075;-67
2023/11/12 08:16:28;;;;;;;31.13;9.55;;;;;;;;;;5016590;28;20112;-67
2023/11/12 08:18:54;;;;;;;25.05;8.45;;;;;;;;;;5015922;28;20065;-67
2023/11/12 08:21:19;;;;;;;25.67;9.15;;;;;;;;;;5016876;28;20479;-67
2023/11/12 08:23:44;;;;;;;21.75;8.82;;;;;;;;;;5009494;28;20026;-67
2023/11/12 08:26:09;;;;;;;31.67;10.52;;;;;;;;;;5025184;28;20391;-68
2023/11/12 08:28:35;;;;;;;24.02;9.00;;;;;;;;;;5020842;28;20055;-68
2023/11/12 08:31:00;;;;;;;31.40;9.73;;;;;;;;;;5017282;28;20442;-68
2023/11/12 08:33:25;;;;;;;31.33;11.05;;;;;;;;;;5016191;28;20052;-68
2023/11/12 08:35:52;;;;;;;27.88;9.30;;;;;;;;;;5016020;28;20026;-68
2023/11/12 08:38:17;;;;;;;31.17;9.40;;;;;;;;;;5016180;28;20055;-68
2023/11/12 08:40:44;;;;;;;29.85;9.18;;;;;;;;;;5015497;28;20016;-68
2023/11/12 08:43:10;;;;;;;24.85;8.75;;;;;;;;;;5016175;28;20075;-68
2023/11/12 08:45:35;;;;;;;23.13;8.85;;;;;;;;;;5015845;28;20018;-68
2023/11/12 08:48:01;;;;;;;28.60;9.93;;;;;;;;;;5016125;28;20025;-68
2023/11/12 08:50:26;;;;;;;29.02;9.73;;;;;;;;;;5015801;28;20014;-68
2023/11/12 08:52:52;;;;;;;24.23;9.88;;;;;;;;;;5015405;28;20100;-68
2023/11/12 08:55:18;;;;;;;22.45;8.00;;;;;;;;;;5014437;28;20025;-68
2023/11/12 08:57:43;;;;;;;29.42;9.43;;;;;;;;;;5015782;28;20045;-68
2023/11/12 09:00:09;;;;;;;25.52;8.82;;;;;;;;;;5030710;28;20467;-68
2023/11/12 09:02:34;;;;;;;19.17;7.72;;;;;;;;;;5030664;28;20022;-67
2023/11/12 09:05:01;;;;;;;23.42;9.25;;;;;;;;;;5015763;28;20034;-67
2023/11/12 09:07:26;;;;;;;19.70;7.75;;;;;;;;;;5015353;28;20100;-68
2023/11/12 09:09:51;;;;;;;20.33;7.63;;;;;;;;;;5030687;28;20095;-67
2023/11/12 09:12:17;;;;;;;26.90;9.80;;;;;;;;;;5015766;28;20091;-68
2023/11/12 09:14:42;;;;;;;20.15;7.70;;;;;;;;;;5014900;28;20032;-68
2023/11/12 09:17:07;;;;;;;24.08;8.55;;;;;;;;;;5015395;28;20057;-67
2023/11/12 09:19:33;;;;;;;16.88;7.15;;;;;;;;;;5014078;28;20022;-67
2023/11/12 09:21:58;;;;;;;19.73;7.50;;;;;;;;;;5015359;28;20018;-68
2023/11/12 09:24:23;;;;;;;23.08;8.20;;;;;;;;;;5033212;28;20030;-67
2023/11/12 09:26:49;;;;;;;22.98;9.15;;;;;;;;;;5032512;28;20026;-67
2023/11/12 09:29:14;;;;;;;15.18;6.75;;;;;;;;;;5014673;28;20022;-67
2023/11/12 09:31:39;;;;;;;20.80;8.60;;;;;;;;;;5014906;28;20448;-67
2023/11/12 09:34:04;;;;;;;18.48;7.25;;;;;;;;;;5016713;28;20026;-67
2023/11/12 09:36:30;;;;;;;19.40;7.75;;;;;;;;;;5015299;28;20395;-68
2023/11/12 09:38:55;;;;;;;20.67;8.25;;;;;;;;;;5015029;28;20088;-67
2023/11/12 09:41:21;;;;;;;20.85;7.35;;;;;;;;;;5015102;28;20022;-67
2023/11/12 09:43:47;;;;;;;18.20;6.82;;;;;;;;;;5014036;28;20479;-68
2023/11/12 09:46:14;;;;;;;16.27;6.50;;;;;;;;;;5014863;28;20025;-67
2023/11/12 09:48:40;;;;;;;16.10;5.97;;;;;;;;;;5014851;28;20030;-68
2023/11/12 09:51:07;;;;;;;23.20;7.70;;;;;;;;;;5013276;28;20026;-68
2023/11/12 09:53:33;;;;;;;17.90;7.70;;;;;;;;;;5041672;28;20029;-67
2023/11/12 09:56:08;;;;;;;17.08;6.65;;;;;;;;;;5034410;28;20048;-67
2023/11/12 09:58:33;;;;;;;16.83;7.57;;;;;;;;;;5026466;28;20029;-67
2023/11/12 10:00:59;;;;;;;16.02;6.75;;;;;;;;;;5014257;28;20022;-67
2023/11/12 10:03:25;;;;;;;13.77;5.60;;;;;;;;;;5031269;28;20395;-67
2023/11/12 10:05:50;;;;;;;12.88;5.22;;;;;;;;;;5016205;28;20026;-67
2023/11/12 10:08:17;;;;;;;10.85;5.30;;;;;;;;;;5013634;28;20491;-67
2023/11/12 10:10:43;;;;;;;9.35;4.93;;;;;;;;;;5012964;28;20080;-67
2023/11/12 10:13:09;;;;;;;14.75;5.13;;;;;;;;;;5014373;28;20483;-67
2023/11/12 10:15:35;;;;;;;13.70;5.20;;;;;;;;;;5014062;28;20407;-67
2023/11/12 10:18:01;;;;;;;12.10;4.65;;;;;;;;;;5029603;28;20022;-68
2023/11/12 10:20:31;;;;;;;9.30;4.13;;;;;;;;;;5012811;28;20033;-67
2023/11/12 10:22:57;;;;;;;6.65;2.97;;;;;;;;;;5029580;28;20430;-67
2023/11/12 10:25:36;;;;;;;7.07;2.97;;;;;;;;;;5014299;28;20028;-68
2023/11/12 10:28:02;;;;;;;4.03;2.28;;;;;;;;;;5029145;28;20391;-68
2023/11/12 10:30:27;;;;;;;2.42;1.63;;;;;;;;;;5029149;28;20026;-68
2023/11/12 10:32:54;;;;;;;2.60;1.58;;;;;;;;;;5016712;28;20032;-67
2023/11/12 10:35:28;;;;;;;2.92;1.38;;;;;;;;;;5014228;28;21394;-68
2023/11/12 10:38:00;;;;;;;3.55;1.15;;;;;;;;;;5015625;28;20431;-67
2023/11/12 10:40:25;;;;;;;5.40;1.17;;;;;;;;;;5015460;28;20101;-67
2023/11/12 10:42:59;;;;;;;4.70;1.05;;;;;;;;;;5017344;28;20156;-68
2023/11/12 10:45:27;;;;;;;3.00;1.45;;;;;;;;;;5014171;28;20025;-68
2023/11/12 10:47:56;;;;;;;3.05;1.00;;;;;;;;;;5013643;28;20041;-68
2023/11/12 10:50:23;;;;;;;1.30;0.90;;;;;;;;;;5029515;28;20394;-68
2023/11/12 10:52:48;;;;;;;3.53;1.17;;;;;;;;;;5029043;28;20116;-68
2023/11/12 10:55:14;;;;;;;2.55;1.02;;;;;;;;;;5028339;28;20054;-67
2023/11/12 10:57:42;;;;;;;4.85;1.00;;;;;;;;;;5015710;28;20506;-67
2023/11/12 11:00:10;;;;;;;2.88;1.10;;;;;;;;;;5015843;28;20115;-67
2023/11/12 11:02:37;;;;;;;3.92;0.90;;;;;;;;;;5031922;28;20025;-67
2023/11/12 11:05:04;;;;;;;3.03;1.00;;;;;;;;;;4999244;28;20033;-67
2023/11/12 11:07:30;;;;;;;2.22;0.93;;;;;;;;;;4993983;28;20031;-67
2023/11/12 11:09:55;;;;;;;4.03;1.08;;;;;;;;;;5014253;28;20026;-67
2023/11/12 11:12:22;;;;;;;5.45;1.67;;;;;;;;;;4994189;28;20022;-67
2023/11/12 11:14:47;;;;;;;3.20;1.10;;;;;;;;;;5039270;23;20045;-67
2023/11/12 11:17:34;;;;;;;2.35;0.98;;;;;;;;;;5033443;28;20029;-67
2023/11/12 11:20:00;;;;;;;1.10;0.95;;;;;;;;;;5031849;28;20095;-67
2023/11/12 11:22:33;;;;;;;2.03;1.00;;;;;;;;;;5033257;28;20470;-67
2023/11/12 11:24:59;;;;;;;1.67;1.10;;;;;;;;;;5032782;28;20075;-67
2023/11/12 11:27:26;;;;;;;1.83;0.80;;;;;;;;;;5031952;28;20056;-67
2023/11/12 11:30:14;;;;;;;2.60;1.20;;;;;;;;;;5032448;28;20021;-67
2023/11/12 11:32:51;;;;;;;2.45;1.20;;;;;;;;;;5032158;28;20151;-67
2023/11/12 11:35:17;;;;;;;2.45;0.85;;;;;;;;;;5032833;28;20032;-67
2023/11/12 11:38:13;;;;;;;3.92;1.05;;;;;;;;;;5028606;28;20496;-67
2023/11/12 11:40:40;;;;;;;2.28;0.93;;;;;;;;;;5025132;28;20072;-67
2023/11/12 11:43:23;;;;;;;2.53;1.17;;;;;;;;;;5032845;28;20184;-67
2023/11/12 11:46:08;;;;;;;2.05;0.82;;;;;;;;;;5036544;28;20028;-67
2023/11/12 11:48:34;;;;;;;6.05;1.52;;;;;;;;;;5036271;28;20033;-67
2023/11/12 11:50:59;;;;;;;3.63;1.27;;;;;;;;;;5035391;28;20047;-67
2023/11/12 11:53:26;;;;;;;2.50;1.05;;;;;;;;;;5034125;28;20076;-67
2023/11/12 11:55:57;;;;;;;1.40;1.17;;;;;;;;;;5035575;28;20033;-67
2023/11/12 11:58:23;;;;;;;;;;;;;;;;;;5035466;28;20025;-67
2023/11/12 12:00:59;;;;;;;1.70;0.98;;;;;;;;;;5032529;28;19913;-67
2023/11/12 12:03:26;;;;;;;1.13;0.90;;;;;;;;;;5016083;28;20030;-67
2023/11/12 12:05:52;;;;;;;1.40;1.00;;;;;;;;;;5029581;28;20036;-67
2023/11/12 12:08:17;;;;;;;1.23;0.85;;;;;;;;;;5018956;28;20166;-67
2023/11/12 12:10:45;;;;;;;0.93;0.82;;;;;;;;;;5036114;28;20079;-67
2023/11/12 12:13:15;;;;;;;1.60;0.85;;;;;;;;;;5036642;28;20057;-67
2023/11/12 12:15:48;;;;;;;2.63;1.02;;;;;;;;;;5035525;28;20029;-67
2023/11/12 12:18:22;;;;;;;4.03;0.85;;;;;;;;;;5036631;28;20021;-67
2023/11/12 12:20:47;;;;;;;2.92;1.13;;;;;;;;;;5034864;28;20025;-67
2023/11/12 12:23:12;;;;;;;1.33;1.10;;;;;;;;;;5032570;28;20017;-67
2023/11/12 12:25:49;;;;;;;1.23;0.93;;;;;;;;;;5036227;28;20025;-67
2023/11/12 12:28:19;;;;;;;3.05;1.05;;;;;;;;;;5034751;28;20057;-67
2023/11/12 12:30:51;;;;;;;1.60;1.30;;;;;;;;;;5036032;28;20022;-67
2023/11/12 12:33:16;;;;;;;1.77;1.15;;;;;;;;;;5036328;28;20029;-67
2023/11/12 12:35:41;;;;;;;0.82;0.82;;;;;;;;;;5035802;28;20025;-67
2023/11/12 12:38:07;;;;;;;3.67;1.13;;;;;;;;;;5035865;28;20041;-67
2023/11/12 12:40:32;;;;;;;1.20;1.10;;;;;;;;;;5035036;28;20075;-67
2023/11/12 12:42:58;;;;;;;1.92;1.10;;;;;;;;;;5034563;28;20060;-67
2023/11/12 12:45:24;;;;;;;1.23;1.08;;;;;;;;;;5035125;28;20027;-67
2023/11/12 12:47:50;;;;;;;1.98;1.08;;;;;;;;;;5034472;28;20028;-67
2023/11/12 12:50:29;;;;;;;3.00;1.08;;;;;;;;;;5035540;28;20494;-67
2023/11/12 12:53:14;;;;;;;3.97;1.02;;;;;;;;;;5033471;28;20029;-67
2023/11/12 12:55:40;;;;;;;1.60;1.10;;;;;;;;;;5033122;28;20075;-67
2023/11/12 12:58:06;;;;;;;1.35;0.95;;;;;;;;;;5034742;28;20390;-67
2023/11/12 13:00:31;;;;;;;3.20;1.38;;;;;;;;;;5035144;28;20021;-67
2023/11/12 13:02:58;;;;;;;1.42;1.00;;;;;;;;;;5035321;28;20437;-67
2023/11/12 13:05:25;;;;;;;2.95;1.40;;;;;;;;;;5035225;28;20075;-67
2023/11/12 13:07:51;;;;;;;3.70;1.08;;;;;;;;;;5034061;28;20485;-67
2023/11/12 13:10:20;;;;;;;5.35;1.20;;;;;;;;;;5034577;28;20028;-68
2023/11/12 13:12:47;;;;;;;1.40;1.20;;;;;;;;;;5034232;28;20037;-67
2023/11/12 13:15:15;;;;;;;2.67;0.80;;;;;;;;;;5034598;28;20029;-67
2023/11/12 13:17:41;;;;;;;4.95;1.10;;;;;;;;;;5035262;28;20032;-67
2023/11/12 13:20:07;;;;;;;2.17;1.10;;;;;;;;;;5033687;28;20030;-67
2023/11/12 13:22:33;;;;;;;1.73;1.10;;;;;;;;;;5034162;28;20390;-67
2023/11/12 13:24:59;;;;;;;3.40;1.02;;;;;;;;;;5034499;28;20017;-67
2023/11/12 13:27:25;;;;;;;1.40;1.13;;;;;;;;;;5033784;28;20052;-67
2023/11/12 13:29:51;;;;;;;1.30;1.00;;;;;;;;;;5031662;28;20048;-67
2023/11/12 13:32:16;;;;;;;1.75;1.00;;;;;;;;;;5034754;28;20490;-67
2023/11/12 13:34:45;;;;;;;2.83;1.20;;;;;;;;;;5033303;28;20030;-67
2023/11/12 13:37:10;;;;;;;3.47;1.23;;;;;;;;;;5033055;28;20479;-67
2023/11/12 13:39:36;;;;;;;3.88;1.02;;;;;;;;;;5034544;28;20036;-67
2023/11/12 13:42:02;;;;;;;1.42;1.10;;;;;;;;;;5035000;28;20017;-67
2023/11/12 13:44:32;;;;;;;3.60;1.30;;;;;;;;;;5033271;28;20029;-67
2023/11/12 13:46:57;;;;;;;3.47;1.45;;;;;;;;;;5032858;28;20025;-69
2023/11/12 13:49:23;;;;;;;2.60;1.20;;;;;;;;;;5034360;28;20415;-68
2023/11/12 13:51:51;;;;;;;2.47;1.60;;;;;;;;;;5034682;28;20060;-69
2023/11/12 13:54:16;;;;;;;3.88;1.65;;;;;;;;;;5034294;28;20041;-69
2023/11/12 13:56:41;;;;;;;3.95;1.42;;;;;;;;;;5034335;28;20100;-69
2023/11/12 13:59:08;;;;;;;5.43;1.90;;;;;;;;;;5032830;28;20112;-69
2023/11/12 14:01:34;;;;;;;2.28;1.67;;;;;;;;;;5034336;28;20052;-69
2023/11/12 14:04:00;;;;;;;5.93;1.83;;;;;;;;;;5034308;28;20045;-69
2023/11/12 14:06:26;;;;;;;5.85;1.70;;;;;;;;;;5032447;28;20021;-69
2023/11/12 14:08:51;;;;;;;3.72;1.52;;;;;;;;;;5030757;28;20048;-70
2023/11/12 14:11:16;;;;;;;4.50;1.83;;;;;;;;;;5032936;28;20545;-69
2023/11/12 14:13:45;;;;;;;2.30;1.60;;;;;;;;;;5033706;28;20521;-69
2023/11/12 14:16:12;;;;;;;5.60;1.80;;;;;;;;;;5034304;28;20025;-69
2023/11/12 14:18:39;;;;;;;4.60;1.77;;;;;;;;;;5032179;28;20036;-69
2023/11/12 14:21:04;;;;;;;2.83;1.50;;;;;;;;;;5032776;28;20021;-70
2023/11/12 14:23:30;;;;;;;3.83;1.80;;;;;;;;;;5034061;28;20432;-69
2023/11/12 14:25:57;;;;;;;3.30;1.60;;;;;;;;;;5034186;28;20021;-69